sensor_id;sensor_type;location;lat;lon;timestamp;temperature;humidity
10030;DHT22;5055;52.054;8.524;2023-07-30T00:00:53;17.20;97.00
10030;DHT22;5055;52.054;8.524;2023-07-30T00:03:22;17.20;97.00
10030;DHT22;5055;52.054;8.524;2023-07-30T00:05:54;17.10;97.00
10030;DHT22;5055;52.054;8.524;2023-07-30T00:08:24;17.10;97.00
10030;DHT22;5055;52.054;8.524;2023-07-30T00:10:52;17.00;97.00
10030;DHT22;5055;52.054;8.524;2023-07-30T00:13:21;17.00;97.00
10030;DHT22;5055;52.054;8.524;2023-07-30T00:15:50;16.90;97.00
10030;DHT22;5055;52.054;8.524;2023-07-30T00:18:18;16.90;97.00
10030;DHT22;5055;52.054;8.524;2023-07-30T00:20:47;16.90;97.00
10030;DHT22;5055;52.054;8.524;2023-07-30T00:23:15;16.80;97.00
10030;DHT22;5055;52.054;8.524;2023-07-30T00:25:45;16.90;97.00
10030;DHT22;5055;52.054;8.524;2023-07-30T00:28:15;16.90;97.00
10030;DHT22;5055;52.054;8.524;2023-07-30T00:30:44;16.80;97.00
10030;DHT22;5055;52.054;8.524;2023-07-30T00:33:13;16.80;97.00
10030;DHT22;5055;52.054;8.524;2023-07-30T00:35:42;16.80;97.00
10030;DHT22;5055;52.054;8.524;2023-07-30T00:38:10;16.80;97.00
10030;DHT22;5055;52.054;8.524;2023-07-30T00:40:42;16.70;97.00
10030;DHT22;5055;52.054;8.524;2023-07-30T00:43:12;16.70;97.00
10030;DHT22;5055;52.054;8.524;2023-07-30T00:45:43;16.70;97.00
10030;DHT22;5055;52.054;8.524;2023-07-30T00:48:13;16.60;97.00
10030;DHT22;5055;52.054;8.524;2023-07-30T00:50:42;16.60;97.00
10030;DHT22;5055;52.054;8.524;2023-07-30T00:53:14;16.50;97.00
10030;DHT22;5055;52.054;8.524;2023-07-30T00:55:46;16.50;97.00
10030;DHT22;5055;52.054;8.524;2023-07-30T00:58:16;16.50;97.00
10030;DHT22;5055;52.054;8.524;2023-07-30T01:00:45;16.50;97.00
10030;DHT22;5055;52.054;8.524;2023-07-30T01:03:14;16.40;97.00
10030;DHT22;5055;52.054;8.524;2023-07-30T01:05:44;16.40;97.00
10030;DHT22;5055;52.054;8.524;2023-07-30T01:08:12;16.40;97.00
10030;DHT22;5055;52.054;8.524;2023-07-30T01:10:41;16.30;97.00
10030;DHT22;5055;52.054;8.524;2023-07-30T01:13:11;16.30;97.00
10030;DHT22;5055;52.054;8.524;2023-07-30T01:15:42;16.30;97.00
10030;DHT22;5055;52.054;8.524;2023-07-30T01:18:11;16.20;97.00
10030;DHT22;5055;52.054;8.524;2023-07-30T01:20:40;16.20;97.00
10030;DHT22;5055;52.054;8.524;2023-07-30T01:23:10;16.20;97.00
10030;DHT22;5055;52.054;8.524;2023-07-30T01:25:39;16.10;97.00
10030;DHT22;5055;52.054;8.524;2023-07-30T01:28:13;16.10;97.00
10030;DHT22;5055;52.054;8.524;2023-07-30T01:30:45;16.10;97.00
10030;DHT22;5055;52.054;8.524;2023-07-30T01:33:15;16.10;97.00
10030;DHT22;5055;52.054;8.524;2023-07-30T01:35:44;16.00;97.00
10030;DHT22;5055;52.054;8.524;2023-07-30T01:38:15;16.00;97.00
10030;DHT22;5055;52.054;8.524;2023-07-30T01:40:44;15.90;97.00
10030;DHT22;5055;52.054;8.524;2023-07-30T01:43:12;15.90;97.00
10030;DHT22;5055;52.054;8.524;2023-07-30T01:45:41;15.90;97.00
10030;DHT22;5055;52.054;8.524;2023-07-30T01:48:10;15.90;97.00
10030;DHT22;5055;52.054;8.524;2023-07-30T01:50:38;15.90;97.00
10030;DHT22;5055;52.054;8.524;2023-07-30T01:53:06;15.90;97.00
10030;DHT22;5055;52.054;8.524;2023-07-30T01:55:36;15.90;97.00
10030;DHT22;5055;52.054;8.524;2023-07-30T01:58:06;15.80;97.00
10030;DHT22;5055;52.054;8.524;2023-07-30T02:00:34;15.80;97.00
10030;DHT22;5055;52.054;8.524;2023-07-30T02:03:03;15.80;97.00
10030;DHT22;5055;52.054;8.524;2023-07-30T02:05:32;15.80;97.00
10030;DHT22;5055;52.054;8.524;2023-07-30T02:08:00;15.80;97.00
10030;DHT22;5055;52.054;8.524;2023-07-30T02:10:29;15.80;97.00
10030;DHT22;5055;52.054;8.524;2023-07-30T02:12:59;15.70;97.00
10030;DHT22;5055;52.054;8.524;2023-07-30T02:15:28;15.70;97.00
10030;DHT22;5055;52.054;8.524;2023-07-30T02:17:56;15.70;97.00
10030;DHT22;5055;52.054;8.524;2023-07-30T02:20:24;15.70;97.00
10030;DHT22;5055;52.054;8.524;2023-07-30T02:22:53;15.80;97.00
10030;DHT22;5055;52.054;8.524;2023-07-30T02:25:21;15.80;97.00
10030;DHT22;5055;52.054;8.524;2023-07-30T02:27:50;15.70;97.00
10030;DHT22;5055;52.054;8.524;2023-07-30T02:30:20;15.80;97.00
10030;DHT22;5055;52.054;8.524;2023-07-30T02:32:49;15.80;97.00
10030;DHT22;5055;52.054;8.524;2023-07-30T02:35:17;15.80;97.00
10030;DHT22;5055;52.054;8.524;2023-07-30T02:37:46;15.70;97.00
10030;DHT22;5055;52.054;8.524;2023-07-30T02:40:15;15.70;97.00
10030;DHT22;5055;52.054;8.524;2023-07-30T02:42:44;15.80;97.00
10030;DHT22;5055;52.054;8.524;2023-07-30T02:45:13;15.80;97.00
10030;DHT22;5055;52.054;8.524;2023-07-30T02:47:42;15.80;97.00
10030;DHT22;5055;52.054;8.524;2023-07-30T02:50:11;15.80;97.00
10030;DHT22;5055;52.054;8.524;2023-07-30T02:52:39;15.90;97.00
10030;DHT22;5055;52.054;8.524;2023-07-30T02:55:08;15.90;97.00
10030;DHT22;5055;52.054;8.524;2023-07-30T02:57:37;15.90;97.00
10030;DHT22;5055;52.054;8.524;2023-07-30T03:00:06;16.00;97.00
10030;DHT22;5055;52.054;8.524;2023-07-30T03:02:35;16.00;97.00
10030;DHT22;5055;52.054;8.524;2023-07-30T03:05:06;16.00;97.00
10030;DHT22;5055;52.054;8.524;2023-07-30T03:07:35;15.90;97.00
10030;DHT22;5055;52.054;8.524;2023-07-30T03:10:04;15.90;97.00
10030;DHT22;5055;52.054;8.524;2023-07-30T03:12:32;15.90;97.00
10030;DHT22;5055;52.054;8.524;2023-07-30T03:15:01;15.90;97.00
10030;DHT22;5055;52.054;8.524;2023-07-30T03:17:29;15.80;97.00
10030;DHT22;5055;52.054;8.524;2023-07-30T03:19:58;15.80;97.00
10030;DHT22;5055;52.054;8.524;2023-07-30T03:22:28;15.80;97.00
10030;DHT22;5055;52.054;8.524;2023-07-30T03:24:56;15.80;97.00
10030;DHT22;5055;52.054;8.524;2023-07-30T03:27:25;15.80;97.00
10030;DHT22;5055;52.054;8.524;2023-07-30T03:29:53;15.70;97.00
10030;DHT22;5055;52.054;8.524;2023-07-30T03:32:22;15.70;97.00
10030;DHT22;5055;52.054;8.524;2023-07-30T03:34:50;15.70;97.00
10030;DHT22;5055;52.054;8.524;2023-07-30T03:37:18;15.70;97.00
10030;DHT22;5055;52.054;8.524;2023-07-30T03:39:48;15.70;97.00
10030;DHT22;5055;52.054;8.524;2023-07-30T03:42:17;15.70;97.00
10030;DHT22;5055;52.054;8.524;2023-07-30T03:44:45;15.60;97.00
10030;DHT22;5055;52.054;8.524;2023-07-30T03:47:13;15.60;97.00
10030;DHT22;5055;52.054;8.524;2023-07-30T03:49:42;15.60;97.00
10030;DHT22;5055;52.054;8.524;2023-07-30T03:52:10;15.60;97.00
10030;DHT22;5055;52.054;8.524;2023-07-30T03:54:39;15.60;97.00
10030;DHT22;5055;52.054;8.524;2023-07-30T03:57:09;15.50;97.00
10030;DHT22;5055;52.054;8.524;2023-07-30T03:59:37;15.50;97.00
10030;DHT22;5055;52.054;8.524;2023-07-30T04:02:06;15.50;97.00
10030;DHT22;5055;52.054;8.524;2023-07-30T04:04:34;15.50;97.00
10030;DHT22;5055;52.054;8.524;2023-07-30T04:07:03;15.50;97.00
10030;DHT22;5055;52.054;8.524;2023-07-30T04:09:31;15.50;97.00
10030;DHT22;5055;52.054;8.524;2023-07-30T04:12:00;15.50;97.00
10030;DHT22;5055;52.054;8.524;2023-07-30T04:14:29;15.50;97.00
10030;DHT22;5055;52.054;8.524;2023-07-30T04:16:58;15.50;97.00
10030;DHT22;5055;52.054;8.524;2023-07-30T04:19:26;15.50;97.00
10030;DHT22;5055;52.054;8.524;2023-07-30T04:21:55;15.40;97.00
10030;DHT22;5055;52.054;8.524;2023-07-30T04:24:23;15.40;97.00
10030;DHT22;5055;52.054;8.524;2023-07-30T04:26:53;15.40;97.00
10030;DHT22;5055;52.054;8.524;2023-07-30T04:29:21;15.40;97.00
10030;DHT22;5055;52.054;8.524;2023-07-30T04:31:51;15.40;97.00
10030;DHT22;5055;52.054;8.524;2023-07-30T04:34:20;15.40;97.00
10030;DHT22;5055;52.054;8.524;2023-07-30T04:36:48;15.50;97.00
10030;DHT22;5055;52.054;8.524;2023-07-30T04:39:16;15.50;97.00
10030;DHT22;5055;52.054;8.524;2023-07-30T04:41:45;15.50;97.00
10030;DHT22;5055;52.054;8.524;2023-07-30T04:44:13;15.50;97.00
10030;DHT22;5055;52.054;8.524;2023-07-30T04:46:42;15.50;97.00
10030;DHT22;5055;52.054;8.524;2023-07-30T04:49:11;15.50;97.00
10030;DHT22;5055;52.054;8.524;2023-07-30T04:51:40;15.60;97.00
10030;DHT22;5055;52.054;8.524;2023-07-30T04:54:08;15.60;97.00
10030;DHT22;5055;52.054;8.524;2023-07-30T04:56:37;15.70;97.00
10030;DHT22;5055;52.054;8.524;2023-07-30T04:59:05;15.70;97.00
10030;DHT22;5055;52.054;8.524;2023-07-30T05:01:34;15.70;97.00
10030;DHT22;5055;52.054;8.524;2023-07-30T05:04:02;15.80;97.00
10030;DHT22;5055;52.054;8.524;2023-07-30T05:06:32;15.80;97.00
10030;DHT22;5055;52.054;8.524;2023-07-30T05:09:01;15.90;97.00
10030;DHT22;5055;52.054;8.524;2023-07-30T05:11:29;16.00;97.00
10030;DHT22;5055;52.054;8.524;2023-07-30T05:13:58;16.10;97.00
10030;DHT22;5055;52.054;8.524;2023-07-30T05:16:26;16.10;97.00
10030;DHT22;5055;52.054;8.524;2023-07-30T05:18:55;16.20;97.00
10030;DHT22;5055;52.054;8.524;2023-07-30T05:21:24;16.20;97.00
10030;DHT22;5055;52.054;8.524;2023-07-30T05:23:54;16.30;97.00
10030;DHT22;5055;52.054;8.524;2023-07-30T05:26:22;16.30;97.00
10030;DHT22;5055;52.054;8.524;2023-07-30T05:28:50;16.30;97.00
10030;DHT22;5055;52.054;8.524;2023-07-30T05:31:19;16.30;97.00
10030;DHT22;5055;52.054;8.524;2023-07-30T05:33:47;16.20;97.00
10030;DHT22;5055;52.054;8.524;2023-07-30T05:36:16;16.20;97.00
10030;DHT22;5055;52.054;8.524;2023-07-30T05:38:44;16.30;97.00
10030;DHT22;5055;52.054;8.524;2023-07-30T05:41:15;16.30;97.00
10030;DHT22;5055;52.054;8.524;2023-07-30T05:43:44;16.40;97.00
10030;DHT22;5055;52.054;8.524;2023-07-30T05:46:13;16.60;97.00
10030;DHT22;5055;52.054;8.524;2023-07-30T05:48:41;16.70;97.00
10030;DHT22;5055;52.054;8.524;2023-07-30T05:51:10;16.80;97.00
10030;DHT22;5055;52.054;8.524;2023-07-30T05:53:38;16.90;97.00
10030;DHT22;5055;52.054;8.524;2023-07-30T05:56:06;16.90;97.00
10030;DHT22;5055;52.054;8.524;2023-07-30T05:58:36;17.00;97.00
10030;DHT22;5055;52.054;8.524;2023-07-30T06:01:05;17.20;97.00
10030;DHT22;5055;52.054;8.524;2023-07-30T06:03:34;17.30;97.00
10030;DHT22;5055;52.054;8.524;2023-07-30T06:06:03;17.40;97.00
10030;DHT22;5055;52.054;8.524;2023-07-30T06:08:32;17.50;97.00
10030;DHT22;5055;52.054;8.524;2023-07-30T06:11:01;17.50;97.00
10030;DHT22;5055;52.054;8.524;2023-07-30T06:13:31;17.70;97.00
10030;DHT22;5055;52.054;8.524;2023-07-30T06:16:01;17.90;97.00
10030;DHT22;5055;52.054;8.524;2023-07-30T06:18:30;17.90;97.00
10030;DHT22;5055;52.054;8.524;2023-07-30T06:20:59;18.00;97.00
10030;DHT22;5055;52.054;8.524;2023-07-30T06:23:27;18.00;97.00
10030;DHT22;5055;52.054;8.524;2023-07-30T06:25:55;18.00;97.00
10030;DHT22;5055;52.054;8.524;2023-07-30T06:28:24;18.20;97.00
10030;DHT22;5055;52.054;8.524;2023-07-30T06:30:52;18.10;97.00
10030;DHT22;5055;52.054;8.524;2023-07-30T06:33:22;18.20;97.00
10030;DHT22;5055;52.054;8.524;2023-07-30T06:35:53;18.30;97.00
10030;DHT22;5055;52.054;8.524;2023-07-30T06:38:22;18.40;97.00
10030;DHT22;5055;52.054;8.524;2023-07-30T06:40:50;18.30;97.00
10030;DHT22;5055;52.054;8.524;2023-07-30T06:43:18;18.20;97.00
10030;DHT22;5055;52.054;8.524;2023-07-30T06:45:47;18.00;97.00
10030;DHT22;5055;52.054;8.524;2023-07-30T06:48:16;17.80;97.00
10030;DHT22;5055;52.054;8.524;2023-07-30T06:50:46;18.00;97.00
10030;DHT22;5055;52.054;8.524;2023-07-30T06:53:14;17.90;97.00
10030;DHT22;5055;52.054;8.524;2023-07-30T06:55:42;17.90;97.00
10030;DHT22;5055;52.054;8.524;2023-07-30T06:58:11;18.00;97.00
10030;DHT22;5055;52.054;8.524;2023-07-30T07:00:39;17.90;97.00
10030;DHT22;5055;52.054;8.524;2023-07-30T07:03:08;17.90;97.00
10030;DHT22;5055;52.054;8.524;2023-07-30T07:05:37;17.90;97.00
10030;DHT22;5055;52.054;8.524;2023-07-30T07:08:09;17.90;97.00
10030;DHT22;5055;52.054;8.524;2023-07-30T07:10:38;17.80;97.00
10030;DHT22;5055;52.054;8.524;2023-07-30T07:13:06;17.70;97.00
10030;DHT22;5055;52.054;8.524;2023-07-30T07:15:36;17.70;97.00
10030;DHT22;5055;52.054;8.524;2023-07-30T07:18:05;17.80;97.00
10030;DHT22;5055;52.054;8.524;2023-07-30T07:20:33;17.70;97.00
10030;DHT22;5055;52.054;8.524;2023-07-30T07:23:02;17.60;97.00
10030;DHT22;5055;52.054;8.524;2023-07-30T07:25:32;17.50;97.00
10030;DHT22;5055;52.054;8.524;2023-07-30T07:28:00;17.50;97.00
10030;DHT22;5055;52.054;8.524;2023-07-30T07:30:29;17.30;97.00
10030;DHT22;5055;52.054;8.524;2023-07-30T07:32:58;17.30;97.00
10030;DHT22;5055;52.054;8.524;2023-07-30T07:35:26;17.20;97.00
10030;DHT22;5055;52.054;8.524;2023-07-30T07:37:55;17.30;97.00
10030;DHT22;5055;52.054;8.524;2023-07-30T07:40:23;17.20;97.00
10030;DHT22;5055;52.054;8.524;2023-07-30T07:42:54;17.10;97.00
10030;DHT22;5055;52.054;8.524;2023-07-30T07:45:23;17.10;97.00
10030;DHT22;5055;52.054;8.524;2023-07-30T07:47:51;17.00;97.00
10030;DHT22;5055;52.054;8.524;2023-07-30T07:50:20;17.00;97.00
10030;DHT22;5055;52.054;8.524;2023-07-30T07:52:48;17.00;97.00
10030;DHT22;5055;52.054;8.524;2023-07-30T07:55:17;16.90;97.00
10030;DHT22;5055;52.054;8.524;2023-07-30T07:57:45;16.90;97.00
10030;DHT22;5055;52.054;8.524;2023-07-30T08:00:17;17.00;97.00
10030;DHT22;5055;52.054;8.524;2023-07-30T08:02:45;16.90;97.00
10030;DHT22;5055;52.054;8.524;2023-07-30T08:05:17;16.90;97.00
10030;DHT22;5055;52.054;8.524;2023-07-30T08:07:47;16.90;97.00
10030;DHT22;5055;52.054;8.524;2023-07-30T08:10:15;17.00;97.00
10030;DHT22;5055;52.054;8.524;2023-07-30T08:12:45;17.10;97.00
10030;DHT22;5055;52.054;8.524;2023-07-30T08:15:17;17.10;97.00
10030;DHT22;5055;52.054;8.524;2023-07-30T08:17:46;17.30;97.00
10030;DHT22;5055;52.054;8.524;2023-07-30T08:20:15;17.30;97.00
10030;DHT22;5055;52.054;8.524;2023-07-30T08:22:43;17.40;97.00
10030;DHT22;5055;52.054;8.524;2023-07-30T08:25:12;17.50;97.00
10030;DHT22;5055;52.054;8.524;2023-07-30T08:27:41;17.50;97.00
10030;DHT22;5055;52.054;8.524;2023-07-30T08:30:10;17.40;97.00
10030;DHT22;5055;52.054;8.524;2023-07-30T08:32:41;17.50;97.00
10030;DHT22;5055;52.054;8.524;2023-07-30T08:35:10;17.50;97.00
10030;DHT22;5055;52.054;8.524;2023-07-30T08:37:39;17.40;97.00
10030;DHT22;5055;52.054;8.524;2023-07-30T08:40:09;17.30;97.00
10030;DHT22;5055;52.054;8.524;2023-07-30T08:42:38;17.20;97.00
10030;DHT22;5055;52.054;8.524;2023-07-30T08:45:07;17.10;97.00
10030;DHT22;5055;52.054;8.524;2023-07-30T08:47:37;17.10;97.00
10030;DHT22;5055;52.054;8.524;2023-07-30T08:50:08;17.10;97.00
10030;DHT22;5055;52.054;8.524;2023-07-30T08:52:37;17.10;97.00
10030;DHT22;5055;52.054;8.524;2023-07-30T08:55:06;17.10;97.00
10030;DHT22;5055;52.054;8.524;2023-07-30T08:57:36;17.00;97.00
10030;DHT22;5055;52.054;8.524;2023-07-30T09:00:08;16.90;97.00
10030;DHT22;5055;52.054;8.524;2023-07-30T09:02:39;16.90;97.00
10030;DHT22;5055;52.054;8.524;2023-07-30T09:05:11;17.00;97.00
10030;DHT22;5055;52.054;8.524;2023-07-30T09:07:39;17.00;97.00
10030;DHT22;5055;52.054;8.524;2023-07-30T09:10:09;16.90;97.00
10030;DHT22;5055;52.054;8.524;2023-07-30T09:12:38;16.90;97.00
10030;DHT22;5055;52.054;8.524;2023-07-30T09:15:07;16.90;97.00
10030;DHT22;5055;52.054;8.524;2023-07-30T09:17:36;16.90;97.00
10030;DHT22;5055;52.054;8.524;2023-07-30T09:20:06;16.90;97.00
10030;DHT22;5055;52.054;8.524;2023-07-30T09:22:36;16.90;97.00
10030;DHT22;5055;52.054;8.524;2023-07-30T09:25:08;16.90;97.00
10030;DHT22;5055;52.054;8.524;2023-07-30T09:27:36;16.80;97.00
10030;DHT22;5055;52.054;8.524;2023-07-30T09:30:06;16.90;97.00
10030;DHT22;5055;52.054;8.524;2023-07-30T09:32:35;16.80;97.00
10030;DHT22;5055;52.054;8.524;2023-07-30T09:35:07;16.90;97.00
10030;DHT22;5055;52.054;8.524;2023-07-30T09:37:40;16.90;97.00
10030;DHT22;5055;52.054;8.524;2023-07-30T09:40:11;16.90;97.00
10030;DHT22;5055;52.054;8.524;2023-07-30T09:42:42;17.00;97.00
10030;DHT22;5055;52.054;8.524;2023-07-30T09:45:17;17.10;97.00
10030;DHT22;5055;52.054;8.524;2023-07-30T09:47:47;17.10;97.00
10030;DHT22;5055;52.054;8.524;2023-07-30T09:50:16;17.30;97.00
10030;DHT22;5055;52.054;8.524;2023-07-30T09:52:46;17.40;97.00
10030;DHT22;5055;52.054;8.524;2023-07-30T09:55:15;17.50;97.00
10030;DHT22;5055;52.054;8.524;2023-07-30T09:57:45;17.70;97.00
10030;DHT22;5055;52.054;8.524;2023-07-30T10:00:14;17.80;97.00
10030;DHT22;5055;52.054;8.524;2023-07-30T10:02:49;17.90;97.00
10030;DHT22;5055;52.054;8.524;2023-07-30T10:05:19;18.10;97.00
10030;DHT22;5055;52.054;8.524;2023-07-30T10:07:53;18.30;97.00
10030;DHT22;5055;52.054;8.524;2023-07-30T10:10:24;18.40;97.00
10030;DHT22;5055;52.054;8.524;2023-07-30T10:12:55;18.60;97.00
10030;DHT22;5055;52.054;8.524;2023-07-30T10:15:27;18.90;97.00
10030;DHT22;5055;52.054;8.524;2023-07-30T10:17:56;19.30;97.00
10030;DHT22;5055;52.054;8.524;2023-07-30T10:20:31;19.70;97.00
10030;DHT22;5055;52.054;8.524;2023-07-30T10:23:04;20.00;97.00
10030;DHT22;5055;52.054;8.524;2023-07-30T10:25:43;20.30;97.00
10030;DHT22;5055;52.054;8.524;2023-07-30T10:28:27;20.70;97.00
10030;DHT22;5055;52.054;8.524;2023-07-30T10:30:56;20.40;97.00
10030;DHT22;5055;52.054;8.524;2023-07-30T10:33:45;20.00;97.00
10030;DHT22;5055;52.054;8.524;2023-07-30T10:36:17;20.00;97.00
10030;DHT22;5055;52.054;8.524;2023-07-30T10:38:48;19.90;97.00
10030;DHT22;5055;52.054;8.524;2023-07-30T10:41:16;19.90;97.00
10030;DHT22;5055;52.054;8.524;2023-07-30T10:43:49;19.80;97.00
10030;DHT22;5055;52.054;8.524;2023-07-30T10:46:18;19.80;97.00
10030;DHT22;5055;52.054;8.524;2023-07-30T10:48:48;20.30;97.00
10030;DHT22;5055;52.054;8.524;2023-07-30T10:51:18;20.40;97.00
10030;DHT22;5055;52.054;8.524;2023-07-30T10:53:50;20.80;97.00
10030;DHT22;5055;52.054;8.524;2023-07-30T10:56:22;20.80;97.00
10030;DHT22;5055;52.054;8.524;2023-07-30T10:58:53;20.70;97.00
10030;DHT22;5055;52.054;8.524;2023-07-30T11:01:24;20.60;97.00
10030;DHT22;5055;52.054;8.524;2023-07-30T11:03:55;20.70;97.00
10030;DHT22;5055;52.054;8.524;2023-07-30T11:06:24;21.00;97.00
10030;DHT22;5055;52.054;8.524;2023-07-30T11:08:55;21.60;97.00
10030;DHT22;5055;52.054;8.524;2023-07-30T11:11:24;22.00;97.00
10030;DHT22;5055;52.054;8.524;2023-07-30T11:13:52;22.00;97.00
10030;DHT22;5055;52.054;8.524;2023-07-30T11:16:21;22.20;97.00
10030;DHT22;5055;52.054;8.524;2023-07-30T11:18:50;22.10;97.00
10030;DHT22;5055;52.054;8.524;2023-07-30T11:21:19;22.10;97.00
10030;DHT22;5055;52.054;8.524;2023-07-30T11:23:50;22.30;97.00
10030;DHT22;5055;52.054;8.524;2023-07-30T11:26:21;22.70;97.00
10030;DHT22;5055;52.054;8.524;2023-07-30T11:28:49;22.60;97.00
10030;DHT22;5055;52.054;8.524;2023-07-30T11:31:18;22.80;97.00
10030;DHT22;5055;52.054;8.524;2023-07-30T11:33:49;22.60;97.00
10030;DHT22;5055;52.054;8.524;2023-07-30T11:36:21;22.40;97.00
10030;DHT22;5055;52.054;8.524;2023-07-30T11:38:51;22.50;97.00
10030;DHT22;5055;52.054;8.524;2023-07-30T11:41:24;22.70;97.00
10030;DHT22;5055;52.054;8.524;2023-07-30T11:43:54;22.90;97.00
10030;DHT22;5055;52.054;8.524;2023-07-30T11:46:23;23.00;97.00
10030;DHT22;5055;52.054;8.524;2023-07-30T11:48:53;23.20;97.00
10030;DHT22;5055;52.054;8.524;2023-07-30T11:51:38;23.50;97.00
10030;DHT22;5055;52.054;8.524;2023-07-30T11:54:17;23.60;97.00
10030;DHT22;5055;52.054;8.524;2023-07-30T11:56:47;23.30;97.00
10030;DHT22;5055;52.054;8.524;2023-07-30T11:59:22;23.00;97.00
10030;DHT22;5055;52.054;8.524;2023-07-30T12:01:51;22.60;97.00
10030;DHT22;5055;52.054;8.524;2023-07-30T12:04:20;22.20;97.00
10030;DHT22;5055;52.054;8.524;2023-07-30T12:06:50;22.00;97.00
10030;DHT22;5055;52.054;8.524;2023-07-30T12:09:22;21.90;97.00
10030;DHT22;5055;52.054;8.524;2023-07-30T12:11:55;21.60;97.00
10030;DHT22;5055;52.054;8.524;2023-07-30T12:14:26;21.50;97.00
10030;DHT22;5055;52.054;8.524;2023-07-30T12:16:58;21.40;97.00
10030;DHT22;5055;52.054;8.524;2023-07-30T12:19:28;21.30;97.00
10030;DHT22;5055;52.054;8.524;2023-07-30T12:21:58;21.50;97.00
10030;DHT22;5055;52.054;8.524;2023-07-30T12:24:27;21.50;97.00
10030;DHT22;5055;52.054;8.524;2023-07-30T12:26:58;21.80;97.00
10030;DHT22;5055;52.054;8.524;2023-07-30T12:29:27;22.10;97.00
10030;DHT22;5055;52.054;8.524;2023-07-30T12:31:55;22.50;97.00
10030;DHT22;5055;52.054;8.524;2023-07-30T12:34:27;22.70;97.00
10030;DHT22;5055;52.054;8.524;2023-07-30T12:36:56;23.00;97.00
10030;DHT22;5055;52.054;8.524;2023-07-30T12:39:25;23.10;97.00
10030;DHT22;5055;52.054;8.524;2023-07-30T12:41:54;23.30;97.00
10030;DHT22;5055;52.054;8.524;2023-07-30T12:44:24;23.00;97.00
10030;DHT22;5055;52.054;8.524;2023-07-30T12:46:53;22.80;97.00
10030;DHT22;5055;52.054;8.524;2023-07-30T12:49:21;22.90;97.00
10030;DHT22;5055;52.054;8.524;2023-07-30T12:51:50;22.90;97.00
10030;DHT22;5055;52.054;8.524;2023-07-30T12:54:19;23.30;97.00
10030;DHT22;5055;52.054;8.524;2023-07-30T12:56:47;23.10;97.00
10030;DHT22;5055;52.054;8.524;2023-07-30T12:59:16;22.70;97.00
10030;DHT22;5055;52.054;8.524;2023-07-30T13:01:49;22.50;97.00
10030;DHT22;5055;52.054;8.524;2023-07-30T13:04:17;22.50;97.00
10030;DHT22;5055;52.054;8.524;2023-07-30T13:06:46;22.20;97.00
10030;DHT22;5055;52.054;8.524;2023-07-30T13:09:14;22.00;97.00
10030;DHT22;5055;52.054;8.524;2023-07-30T13:11:43;21.80;97.00
10030;DHT22;5055;52.054;8.524;2023-07-30T13:14:12;21.80;97.00
10030;DHT22;5055;52.054;8.524;2023-07-30T13:16:40;21.80;97.00
10030;DHT22;5055;52.054;8.524;2023-07-30T13:19:10;21.80;97.00
10030;DHT22;5055;52.054;8.524;2023-07-30T13:21:38;21.60;97.00
10030;DHT22;5055;52.054;8.524;2023-07-30T13:24:07;21.40;97.00
10030;DHT22;5055;52.054;8.524;2023-07-30T13:26:36;21.40;97.00
10030;DHT22;5055;52.054;8.524;2023-07-30T13:29:05;21.30;97.00
10030;DHT22;5055;52.054;8.524;2023-07-30T13:31:34;21.10;97.00
10030;DHT22;5055;52.054;8.524;2023-07-30T13:34:03;20.90;97.00
10030;DHT22;5055;52.054;8.524;2023-07-30T13:36:33;20.80;97.00
10030;DHT22;5055;52.054;8.524;2023-07-30T13:39:01;20.50;97.00
10030;DHT22;5055;52.054;8.524;2023-07-30T13:41:30;20.20;97.00
10030;DHT22;5055;52.054;8.524;2023-07-30T13:43:59;20.20;97.00
10030;DHT22;5055;52.054;8.524;2023-07-30T13:46:27;20.00;97.00
10030;DHT22;5055;52.054;8.524;2023-07-30T13:48:56;19.80;97.00
10030;DHT22;5055;52.054;8.524;2023-07-30T13:51:24;19.50;97.00
10030;DHT22;5055;52.054;8.524;2023-07-30T13:53:55;19.40;97.00
10030;DHT22;5055;52.054;8.524;2023-07-30T13:56:23;19.30;97.00
10030;DHT22;5055;52.054;8.524;2023-07-30T13:58:52;19.10;97.00
10030;DHT22;5055;52.054;8.524;2023-07-30T14:01:21;19.00;97.00
10030;DHT22;5055;52.054;8.524;2023-07-30T14:03:49;19.10;97.00
10030;DHT22;5055;52.054;8.524;2023-07-30T14:06:18;19.00;97.00
10030;DHT22;5055;52.054;8.524;2023-07-30T14:08:47;19.00;97.00
10030;DHT22;5055;52.054;8.524;2023-07-30T14:11:17;19.00;97.00
10030;DHT22;5055;52.054;8.524;2023-07-30T14:13:46;19.10;97.00
10030;DHT22;5055;52.054;8.524;2023-07-30T14:16:14;19.10;97.00
10030;DHT22;5055;52.054;8.524;2023-07-30T14:18:43;19.10;97.00
10030;DHT22;5055;52.054;8.524;2023-07-30T14:21:12;19.50;97.00
10030;DHT22;5055;52.054;8.524;2023-07-30T14:23:40;19.60;97.00
10030;DHT22;5055;52.054;8.524;2023-07-30T14:26:09;19.70;97.00
10030;DHT22;5055;52.054;8.524;2023-07-30T14:28:39;19.90;97.00
10030;DHT22;5055;52.054;8.524;2023-07-30T14:31:08;20.20;97.00
10030;DHT22;5055;52.054;8.524;2023-07-30T14:33:36;20.40;97.00
10030;DHT22;5055;52.054;8.524;2023-07-30T14:36:05;21.00;97.00
10030;DHT22;5055;52.054;8.524;2023-07-30T14:38:34;21.10;97.00
10030;DHT22;5055;52.054;8.524;2023-07-30T14:41:02;21.20;97.00
10030;DHT22;5055;52.054;8.524;2023-07-30T14:43:32;21.50;97.00
10030;DHT22;5055;52.054;8.524;2023-07-30T14:46:02;21.60;97.00
10030;DHT22;5055;52.054;8.524;2023-07-30T14:48:31;21.90;97.00
10030;DHT22;5055;52.054;8.524;2023-07-30T14:51:00;22.10;97.00
10030;DHT22;5055;52.054;8.524;2023-07-30T14:53:28;22.30;97.00
10030;DHT22;5055;52.054;8.524;2023-07-30T14:55:57;22.40;97.00
10030;DHT22;5055;52.054;8.524;2023-07-30T14:58:28;22.50;97.00
10030;DHT22;5055;52.054;8.524;2023-07-30T15:00:57;22.60;97.00
10030;DHT22;5055;52.054;8.524;2023-07-30T15:03:27;23.10;97.00
10030;DHT22;5055;52.054;8.524;2023-07-30T15:05:57;23.50;97.00
10030;DHT22;5055;52.054;8.524;2023-07-30T15:08:26;24.00;97.00
10030;DHT22;5055;52.054;8.524;2023-07-30T15:10:56;24.00;97.00
10030;DHT22;5055;52.054;8.524;2023-07-30T15:13:25;23.80;97.00
10030;DHT22;5055;52.054;8.524;2023-07-30T15:15:55;23.70;97.00
10030;DHT22;5055;52.054;8.524;2023-07-30T15:18:24;23.70;97.00
10030;DHT22;5055;52.054;8.524;2023-07-30T15:20:54;23.70;97.00
10030;DHT22;5055;52.054;8.524;2023-07-30T15:23:23;23.60;97.00
10030;DHT22;5055;52.054;8.524;2023-07-30T15:25:51;23.60;97.00
10030;DHT22;5055;52.054;8.524;2023-07-30T15:28:23;23.50;97.00
10030;DHT22;5055;52.054;8.524;2023-07-30T15:30:51;23.50;97.00
10030;DHT22;5055;52.054;8.524;2023-07-30T15:33:20;23.60;97.00
10030;DHT22;5055;52.054;8.524;2023-07-30T15:35:49;23.10;97.00
10030;DHT22;5055;52.054;8.524;2023-07-30T15:38:19;22.90;97.00
10030;DHT22;5055;52.054;8.524;2023-07-30T15:40:47;22.50;97.00
10030;DHT22;5055;52.054;8.524;2023-07-30T15:43:16;22.00;97.00
10030;DHT22;5055;52.054;8.524;2023-07-30T15:45:44;21.70;97.00
10030;DHT22;5055;52.054;8.524;2023-07-30T15:48:13;21.50;97.00
10030;DHT22;5055;52.054;8.524;2023-07-30T15:50:42;21.40;97.00
10030;DHT22;5055;52.054;8.524;2023-07-30T15:53:11;21.40;97.00
10030;DHT22;5055;52.054;8.524;2023-07-30T15:55:41;21.50;97.00
10030;DHT22;5055;52.054;8.524;2023-07-30T15:58:11;21.90;97.00